Ama, Louisiana
Current Conditions -  °F | °C
As of 2:53 AM on Saturday 25 Oct 2014 (Local Time) from KMSY Reporting Station
Clear Clear  
Wind Chill: 62°   Ceiling: Unl
Heat Index: 62°   Visibility: 10mi
Dew Point: 52°   Wind: 6mph
Humidity: 70%   Direction: 10°N
Pressure: 30.09"   Gusts: NA
Location:  29.95°N, 90.3°W
Report Text: KMSY 250753Z 01005KT 10SM CLR 17/11 A3009 RMK AO2 SLP192 T01670111
Loading
Personal Weather Stations






























Interactive Weather Map
Tropical Storm Tracking
New forecast layout! Learn more

10-Day Weather Forecast

Advertisements
Track Severe Weather on mobile